Huvudsida
METAR-TAF:

METAR-TAF

Flygplatser :

Stockholm-Bromma flygplats

Stockholm, Sverige

latitud: 59-21N, longitud: 017-57E, höjd: 14 m

Aktuellt väderrapport

Denna rapport gjordes för 22 minuter sedan, klockan 22:20 UTC
Vind 6 kt från syd/sydost
Temperatur 5°C
Fuktighet 93%
Tryck 1010 hPa
Sikt 10 km eller mer

METAR: ESSB 112220Z AUTO 15006KT 9999 FEW013/// 05/04 Q1010

Tid: 23:42 (22:42 UTC)

Väderprognos

Denna rapport gjordes för 5 timmar och 12 minuter sedan, klockan 17:30 UTC
Prognos gäller från 11 kl. 18 UTC till 11 kl. 21 UTC
Vind 7 kt från sydost
Sikt 10 km eller mer
Spridda moln på en höjd av 1200 ft
Brutna moln på en höjd av 2500 ft
Temporärt
från 11 kl. 18 UTC till 11 kl. 21 UTC
Brutna moln på en höjd av 1200 ft

TAF: ESSB 111730Z 1118/1121 14007KT 9999 SCT012 BKN025 TEMPO 1118/1121 BKN012

Aktuella väderrapporter och prognoser från 4000 flygplatser (METAR- och TAF-rapporter).

De tillgängliga stationerna syns som gula och röda prickar på kartan.

För musen över prickarna för att se namnen på stationerna.

Klicka sedan för att få väderrapporter och prognoser.

För att ändra kartan: Klicka på de gröna knapparna med ett svart kors på för att zooma in; den gröna knappen med ett streck på för att zooma ut; eller på de gröna pilarna för angränsande kartor.


METAR-TAF: